Time;durP1;ratioP1;P1;durP2;ratioP2;P2;SDS_P1;SDS_P2;PMS_P1;PMS_P2;Temp;Humidity;BMP_temperature;BMP_pressure;BME280_temperature;BME280_humidity;BME280_pressure;Samples;Min_cycle;Max_cycle;Signal;HPM_P1;HPM_P2
2021/01/12 00:02:05;;;;;;;26.25;22.13;;;2.00;47.40;3.00;100403.00;;;;5110628;28;20485;-75
2021/01/12 00:04:33;;;;;;;25.80;21.77;;;2.00;47.50;3.00;100401.00;;;;5092051;28;20425;-75
2021/01/12 00:07:00;;;;;;;29.63;23.05;;;2.00;47.30;3.10;100405.00;;;;5094219;28;20504;-74
2021/01/12 00:09:28;;;;;;;26.65;22.85;;;2.00;46.80;3.00;100414.00;;;;5099842;28;20412;-75
2021/01/12 00:11:55;;;;;;;23.77;20.67;;;2.00;47.10;3.00;66911.00;;;;5096534;28;20421;-75
2021/01/12 00:17:09;;;;;;;25.08;21.50;;;2.00;47.20;3.00;100385.00;;;;5097199;28;20412;-75
2021/01/12 00:19:38;;;;;;;27.02;22.95;;;2.00;46.70;3.00;100385.00;;;;5099124;28;20420;-74
2021/01/12 00:22:13;;;;;;;25.80;22.05;;;2.00;47.10;3.00;100368.00;;;;5118115;27;20766;-75
2021/01/12 00:24:43;;;;;;;26.88;21.17;;;2.00;47.10;3.00;100382.00;;;;5093770;28;20426;-75
2021/01/12 00:27:11;;;;;;;27.52;22.27;;;2.00;47.00;3.00;100381.00;;;;5105425;28;20422;-74
2021/01/12 00:29:39;;;;;;;26.63;22.08;;;2.00;46.90;3.00;100361.00;;;;5110642;28;20443;-77
2021/01/12 00:32:07;;;;;;;27.08;23.40;;;2.00;47.20;3.00;100358.00;;;;5099020;28;20501;-76
2021/01/12 00:34:36;;;;;;;28.05;22.80;;;2.00;47.10;3.00;100382.00;;;;5117953;28;20415;-76
2021/01/12 00:37:03;;;;;;;26.60;21.80;;;2.00;47.10;3.00;100369.00;;;;5128142;27;20428;-76
2021/01/12 00:39:33;;;;;;;26.95;21.90;;;2.00;47.40;217.30;157993.00;;;;5116708;28;20656;-76
2021/01/12 00:42:00;;;;;;;27.48;23.10;;;2.10;47.50;217.30;158009.00;;;;5108908;28;20409;-76
2021/01/12 00:44:28;;;;;;;25.27;21.75;;;2.10;47.50;3.20;100340.00;;;;5094695;28;20417;-76
2021/01/12 00:46:56;;;;;;;25.60;20.40;;;2.10;47.40;3.20;100345.00;;;;5095535;28;20450;-75
2021/01/12 00:49:24;;;;;;;24.38;21.48;;;2.10;47.60;3.00;100342.00;;;;5122150;27;20413;-75
2021/01/12 00:51:53;;;;;;;26.80;22.85;;;2.10;47.70;3.00;100317.00;;;;5119994;28;20444;-76
2021/01/12 00:54:23;;;;;;;25.97;22.37;;;2.00;48.20;3.00;100320.00;;;;5108717;28;20420;-75
2021/01/12 00:56:51;;;;;;;25.75;21.48;;;2.00;48.40;3.00;100324.00;;;;5120410;28;20448;-75
2021/01/12 00:59:18;;;;;;;27.98;21.88;;;2.00;48.70;3.00;100305.00;;;;5115176;28;20481;-76
2021/01/12 01:01:47;;;;;;;26.70;22.13;;;2.00;48.80;3.00;100322.00;;;;5114729;28;20398;-74
2021/01/12 01:04:16;;;;;;;25.42;21.10;;;2.20;48.80;3.10;100338.00;;;;5117640;28;20418;-76
2021/01/12 01:06:45;;;;;;;26.40;22.23;;;2.10;49.00;3.20;100333.00;;;;5130666;28;20426;-75
2021/01/12 01:09:13;;;;;;;26.35;22.85;;;2.10;49.00;3.20;100310.00;;;;5114541;28;20426;-75
2021/01/12 01:11:43;;;;;;;25.55;21.23;;;2.20;49.00;3.10;100301.00;;;;5126609;28;20718;-75
2021/01/12 01:14:10;;;;;;;25.67;21.38;;;2.10;49.70;3.10;100315.00;;;;5111603;28;20486;-75
2021/01/12 01:16:39;;;;;;;27.27;22.45;;;2.10;50.40;3.00;100289.00;;;;5118525;28;20431;-76
2021/01/12 01:19:08;;;;;;;24.88;21.40;;;2.00;50.70;3.00;100299.00;;;;5104579;28;20431;-76
2021/01/12 01:21:35;;;;;;;27.38;21.92;;;2.00;51.50;2.90;100300.00;;;;5096328;28;20409;-76
2021/01/12 01:24:04;;;;;;;27.95;22.70;;;2.00;52.50;2.80;100300.00;;;;5113795;28;20423;-75
2021/01/12 01:26:33;;;;;;;27.15;22.52;;;1.90;54.50;2.70;100303.00;;;;5100217;28;20440;-76
2021/01/12 01:29:00;;;;;;;27.92;24.35;;;1.80;57.80;2.40;100316.00;;;;5094034;28;20453;-77
2021/01/12 01:31:35;;;;;;;28.58;23.45;;;1.70;60.70;2.30;100295.00;;;;5082709;28;20415;-77
2021/01/12 01:34:03;;;;;;;26.80;22.67;;;1.60;61.50;2.40;100285.00;;;;5078591;28;20519;-76
2021/01/12 01:36:31;;;;;;;27.67;23.00;;;1.60;61.00;2.40;100287.00;;;;5093855;28;20414;-77
2021/01/12 01:38:58;;;;;;;29.40;22.83;;;1.70;60.40;2.50;100296.00;;;;5091359;28;20410;-77
2021/01/12 01:41:26;;;;;;;27.77;22.88;;;1.70;59.90;2.60;100301.00;;;;5089014;28;20797;-76
2021/01/12 01:43:54;;;;;;;28.27;22.50;;;1.80;59.30;2.70;100301.00;;;;5092134;28;20453;-77
2021/01/12 01:46:21;;;;;;;27.42;22.60;;;1.90;58.90;2.70;100267.00;;;;5096516;28;20463;-77
2021/01/12 01:48:49;;;;;;;26.60;21.70;;;1.90;57.90;2.70;66863.00;;;;5089695;28;20412;-77
2021/01/12 01:51:17;;;;;;;25.35;21.50;;;2.00;57.90;2.70;100293.00;;;;5089110;28;20925;-77
2021/01/12 01:53:46;;;;;;;26.02;22.17;;;2.00;57.10;2.70;100292.00;;;;5093140;28;20425;-76
2021/01/12 01:56:16;;;;;;;25.40;21.33;;;1.90;56.80;2.60;100257.00;;;;5104816;27;20456;-77
2021/01/12 01:58:44;;;;;;;24.85;21.17;;;1.90;56.90;2.60;100277.00;;;;5073784;28;20408;-77
2021/01/12 02:01:13;;;;;;;26.73;22.13;;;1.90;57.10;2.60;100256.00;;;;5092513;28;20418;-77
2021/01/12 02:04:00;;;;;;;26.63;21.00;;;1.90;56.70;2.60;100262.00;;;;5095048;28;20459;-77
2021/01/12 02:06:32;;;;;;;28.52;23.30;;;1.90;57.20;2.60;100284.00;;;;5103489;28;20913;-77
2021/01/12 02:09:05;;;;;;;30.02;23.45;;;1.90;56.90;2.60;100272.00;;;;5097970;28;20414;-77
2021/01/12 02:11:40;;;;;;;25.40;21.88;;;1.90;56.70;2.70;100248.00;;;;5141104;27;20420;-77
2021/01/12 02:14:16;;;;;;;26.52;21.75;;;1.90;56.90;2.70;100256.00;;;;5131657;27;20588;-77
2021/01/12 02:16:46;;;;;;;26.30;22.98;;;1.90;57.00;2.70;100241.00;;;;5081458;28;20454;-76
2021/01/12 02:19:19;;;;;;;26.42;21.40;;;1.90;56.90;2.80;100234.00;;;;5091493;28;20416;-77
2021/01/12 02:21:49;;;;;;;26.08;22.60;;;2.00;56.80;2.80;100239.00;;;;5107402;27;20514;-77
2021/01/12 02:24:18;;;;;;;25.85;22.90;;;2.00;57.10;2.80;100224.00;;;;5103787;27;20532;-77
2021/01/12 02:26:45;;;;;;;25.70;21.88;;;2.00;56.60;2.80;100223.00;;;;5095324;28;20984;-76
2021/01/12 02:29:13;;;;;;;26.17;22.45;;;1.90;57.20;2.70;100215.00;;;;5091250;28;20455;-76
2021/01/12 02:31:40;;;;;;;24.70;21.27;;;1.90;57.50;2.80;100199.00;;;;5072348;28;20422;-76
2021/01/12 02:34:16;;;;;;;27.40;23.73;;;2.00;57.50;2.90;100224.00;;;;5087591;28;20474;-76
2021/01/12 02:36:46;;;;;;;25.45;21.83;;;2.00;57.30;2.90;100213.00;;;;5094224;28;20436;-77
2021/01/12 02:39:14;;;;;;;26.10;22.60;;;2.00;57.50;2.80;100208.00;;;;5089560;28;20453;-77
2021/01/12 02:41:43;;;;;;;26.23;22.23;;;2.00;57.70;2.80;66888.00;;;;5086137;28;20483;-76
2021/01/12 02:44:21;;;;;;;26.48;22.08;;;1.90;58.30;2.90;100206.00;;;;5071424;28;20418;-76
2021/01/12 02:46:49;;;;;;;27.83;22.88;;;2.00;58.00;2.90;100173.00;;;;5085557;28;20432;-77
2021/01/12 02:49:17;;;;;;;25.85;22.38;;;2.00;57.90;2.90;100182.00;;;;5090594;28;20501;-77
2021/01/12 02:51:44;;;;;;;26.43;22.00;;;2.00;58.00;2.90;100179.00;;;;5099653;28;20492;-77
2021/01/12 02:54:11;;;;;;;26.73;22.83;;;2.00;58.30;2.90;100170.00;;;;5114274;28;20434;-77
2021/01/12 02:56:39;;;;;;;28.98;22.70;;;2.00;58.60;2.90;100152.00;;;;5109770;28;20426;-77
2021/01/12 02:59:07;;;;;;;26.80;23.23;;;2.00;58.90;2.90;100162.00;;;;5086726;28;20904;-77
2021/01/12 03:01:34;;;;;;;28.35;22.90;;;2.00;59.10;2.90;100167.00;;;;5098994;28;20411;-78
2021/01/12 03:04:02;;;;;;;27.35;23.33;;;2.00;59.40;2.90;100165.00;;;;5087915;28;20467;-78
2021/01/12 03:06:30;;;;;;;27.83;24.10;;;2.10;59.50;3.00;100147.00;;;;5085975;28;20473;-78
2021/01/12 03:08:58;;;;;;;25.00;22.30;;;2.00;59.40;3.00;100131.00;;;;5089195;28;20981;-77
2021/01/12 03:11:25;;;;;;;26.40;22.43;;;2.10;59.70;3.00;100134.00;;;;5076721;28;20981;-78
2021/01/12 03:13:52;;;;;;;26.50;21.73;;;2.10;60.10;2.90;100134.00;;;;5097232;28;20485;-78
2021/01/12 03:16:21;;;;;;;24.95;21.60;;;2.10;60.70;2.90;100132.00;;;;5086007;28;20909;-78
2021/01/12 03:18:49;;;;;;;26.98;23.17;;;2.00;60.90;2.80;100099.00;;;;5105346;28;20410;-78
2021/01/12 03:21:17;;;;;;;27.38;23.50;;;2.00;62.00;2.80;100095.00;;;;5085376;28;20846;-78
2021/01/12 03:23:44;;;;;;;28.83;24.42;;;2.00;62.80;2.70;100117.00;;;;5099350;28;20864;-77
2021/01/12 03:26:12;;;;;;;29.35;23.58;;;1.90;64.20;2.70;100114.00;;;;5093766;28;20417;-77
2021/01/12 03:28:40;;;;;;;28.13;23.73;;;1.90;65.30;2.70;100107.00;;;;5096207;28;20423;-78
2021/01/12 03:31:07;;;;;;;26.97;23.30;;;1.90;66.30;2.70;100073.00;;;;5101137;28;20413;-78
2021/01/12 03:33:36;;;;;;;29.00;24.50;;;1.90;66.90;2.70;100087.00;;;;5085266;28;20415;-78
2021/01/12 03:36:05;;;;;;;26.48;23.65;;;1.90;67.30;2.70;100088.00;;;;5107122;27;20422;-78
2021/01/12 03:38:32;;;;;;;29.00;23.33;;;1.90;67.80;2.70;100075.00;;;;5100405;28;21012;-78
2021/01/12 03:40:59;;;;;;;25.77;22.30;;;1.90;68.60;2.70;100069.00;;;;5080479;28;20502;-78
2021/01/12 03:43:27;;;;;;;28.33;24.48;;;1.90;69.60;2.80;100073.00;;;;5074771;28;20517;-77
2021/01/12 03:45:54;;;;;;;28.40;23.57;;;2.00;69.30;2.60;100054.00;;;;5095031;28;20745;-77
2021/01/12 03:48:22;;;;;;;29.77;26.10;;;1.90;70.60;2.60;100055.00;;;;5100098;28;20420;-77
2021/01/12 03:50:50;;;;;;;27.95;24.60;;;1.80;71.20;2.50;100044.00;;;;5089468;28;20418;-77
2021/01/12 03:53:17;;;;;;;30.88;25.15;;;1.80;71.90;2.50;100055.00;;;;5086310;28;20482;-78
2021/01/12 03:55:45;;;;;;;31.27;25.85;;;1.80;72.40;2.50;100042.00;;;;5093642;28;20466;-78
2021/01/12 03:58:12;;;;;;;30.70;24.33;;;1.70;72.80;2.60;100033.00;;;;5082432;28;20417;-78
2021/01/12 04:00:39;;;;;;;32.03;25.17;;;1.80;73.40;2.60;100033.00;;;;5116163;28;20436;-77
2021/01/12 04:03:07;;;;;;;33.85;25.40;;;1.80;73.30;2.60;100040.00;;;;5122744;27;20434;-77
2021/01/12 04:05:34;;;;;;;30.15;24.25;;;1.80;73.20;2.60;100026.00;;;;5116484;28;20423;-77
2021/01/12 04:08:03;;;;;;;30.40;25.40;;;1.90;73.60;2.60;66805.00;;;;5103924;28;20416;-76
2021/01/12 04:10:31;;;;;;;31.52;25.27;;;1.80;73.90;2.60;100012.00;;;;5107184;28;20408;-77
2021/01/12 04:13:01;;;;;;;30.60;24.10;;;1.70;75.00;2.50;66805.00;;;;5113068;28;20426;-78
2021/01/12 04:15:28;;;;;;;31.90;25.80;;;1.70;75.50;2.40;100006.00;;;;5119734;28;20399;-77
2021/01/12 04:17:56;;;;;;;35.30;26.85;;;1.70;75.80;2.30;100000.00;;;;5126470;28;20454;-75
2021/01/12 04:20:23;;;;;;;33.25;26.70;;;1.60;76.70;2.20;99993.00;;;;5101649;28;20493;-76
2021/01/12 04:22:51;;;;;;;34.17;28.05;;;1.50;77.70;2.20;99998.00;;;;5125103;28;20404;-76
2021/01/12 04:25:20;;;;;;;34.35;27.60;;;1.50;78.10;2.20;99990.00;;;;5124370;28;20456;-77
2021/01/12 04:27:48;;;;;;;37.20;29.30;;;1.40;78.30;2.10;99980.00;;;;5106156;28;20416;-77
2021/01/12 04:30:16;;;;;;;37.60;30.20;;;1.30;78.90;2.10;99988.00;;;;5096802;28;20767;-77
2021/01/12 04:32:43;;;;;;;41.67;30.02;;;1.30;79.60;2.10;99986.00;;;;5094693;28;20420;-77
2021/01/12 04:35:11;;;;;;;40.75;31.17;;;1.20;80.10;2.10;99995.00;;;;5113636;27;20414;-77
2021/01/12 04:37:38;;;;;;;41.38;32.08;;;1.20;80.50;2.10;99982.00;;;;5092483;28;20492;-77
2021/01/12 04:40:08;;;;;;;41.72;30.70;;;1.20;80.60;217.30;157531.00;;;;5112354;28;20418;-78
2021/01/12 04:42:36;;;;;;;41.95;32.50;;;1.10;80.80;2.10;99971.00;;;;5113965;28;20421;-79
2021/01/12 04:45:06;;;;;;;46.00;35.17;;;1.20;81.20;2.10;99977.00;;;;5112946;28;20438;-76
2021/01/12 04:47:33;;;;;;;46.25;32.67;;;1.20;81.40;2.00;99973.00;;;;5127648;28;20442;-76
2021/01/12 04:50:02;;;;;;;47.30;35.17;;;1.20;81.50;2.00;99959.00;;;;5112520;28;20407;-78
2021/01/12 04:52:30;;;;;;;45.10;34.27;;;1.10;81.70;1.90;99960.00;;;;5123688;28;20503;-76
2021/01/12 04:55:02;;;;;;;46.08;35.47;;;1.10;81.90;1.90;99968.00;;;;5110944;28;20429;-77
2021/01/12 04:57:30;;;;;;;52.10;35.63;;;1.10;82.20;2.00;99950.00;;;;5113087;28;20423;-77
2021/01/12 04:59:58;;;;;;;46.80;37.08;;;1.10;82.50;2.00;99943.00;;;;5075201;28;20513;-78
2021/01/12 05:02:26;;;;;;;47.33;34.50;;;1.10;82.70;2.00;99926.00;;;;5100485;28;20411;-77
2021/01/12 05:04:56;;;;;;;51.42;36.95;;;1.10;82.80;2.00;99925.00;;;;5104962;28;20505;-77
2021/01/12 05:07:23;;;;;;;45.25;35.22;;;1.10;82.80;2.00;99924.00;;;;5096330;28;20421;-77
2021/01/12 05:09:50;;;;;;;48.33;35.17;;;1.10;82.80;1.90;99910.00;;;;5105932;27;21015;-77
2021/01/12 05:12:18;;;;;;;46.00;34.90;;;1.00;82.90;1.90;99902.00;;;;5087485;28;20789;-77
2021/01/12 05:14:47;;;;;;;48.38;36.42;;;1.10;83.00;1.80;99914.00;;;;5105968;28;20416;-78
2021/01/12 05:17:21;;;;;;;49.67;35.28;;;1.10;83.00;1.80;99907.00;;;;5102355;28;20413;-79
2021/01/12 05:19:55;;;;;;;47.53;35.67;;;1.10;83.10;1.80;99920.00;;;;5108176;27;20462;-78
2021/01/12 05:22:25;;;;;;;51.95;36.65;;;1.10;83.10;1.80;99901.00;;;;5091430;28;20445;-77
2021/01/12 05:25:19;;;;;;;47.33;35.73;;;1.00;83.10;1.60;99907.00;;;;5102799;28;20505;-77
2021/01/12 05:27:40;;;;;;;53.75;39.20;;;0.90;83.10;217.30;157343.00;;;;5091375;28;20458;-77
2021/01/12 05:30:10;;;;;;;50.05;36.95;;;0.90;83.30;1.60;99884.00;;;;5079140;28;20426;-77
2021/01/12 05:32:40;;;;;;;52.63;36.38;;;0.90;83.50;1.60;99864.00;;;;5082961;28;20526;-78
2021/01/12 05:35:08;;;;;;;53.58;38.70;;;0.90;83.60;1.60;99870.00;;;;5107152;28;20936;-78
2021/01/12 05:37:38;;;;;;;56.30;39.72;;;0.90;83.70;1.50;99602.00;;;;5092903;28;20414;-78
2021/01/12 05:40:08;;;;;;;53.45;40.25;;;0.90;83.70;1.60;99842.00;;;;5088145;28;20419;-79
2021/01/12 05:42:39;;;;;;;57.77;39.53;;;0.90;84.00;1.50;99861.00;;;;5095432;28;20420;-78
2021/01/12 05:45:09;;;;;;;57.97;40.20;;;0.80;83.90;1.50;99852.00;;;;5096560;28;20484;-79
2021/01/12 05:47:36;;;;;;;61.92;41.33;;;0.80;84.10;1.40;66583.00;;;;5106174;28;20427;-78
2021/01/12 05:50:06;;;;;;;53.73;39.37;;;0.90;84.80;1.50;99867.00;;;;5097670;28;21007;-79
2021/01/12 05:52:51;;;;;;;60.47;40.25;;;0.90;84.30;1.50;99858.00;;;;5125806;27;20448;-80
2021/01/12 05:55:21;;;;;;;59.67;40.78;;;0.80;84.40;1.40;99857.00;;;;5108674;28;20418;-79
2021/01/12 05:57:53;;;;;;;60.45;40.80;;;0.80;84.50;1.40;99854.00;;;;5095896;28;20431;-79
2021/01/12 06:00:23;;;;;;;65.13;42.63;;;0.80;84.60;1.40;99857.00;;;;5117830;27;20414;-80
2021/01/12 06:02:53;;;;;;;58.50;40.75;;;0.80;84.60;1.50;99836.00;;;;5098720;28;20426;-79
2021/01/12 06:05:22;;;;;;;58.97;41.97;;;0.80;84.70;217.30;157311.00;;;;5104516;28;20423;-79
2021/01/12 06:07:49;;;;;;;59.35;41.35;;;0.80;84.90;1.50;99834.00;;;;5100590;28;20417;-80
2021/01/12 06:10:21;;;;;;;55.90;38.03;;;0.80;84.90;1.50;99826.00;;;;5109409;28;20402;-79
2021/01/12 06:12:56;;;;;;;58.80;40.80;;;0.80;85.00;52.70;157295.00;;;;5130705;27;20433;-80
2021/01/12 06:15:28;;;;;;;57.03;40.65;;;0.80;85.10;1.50;99832.00;;;;5103975;28;20436;-81
2021/01/12 06:18:05;;;;;;;63.10;42.88;;;0.80;85.10;1.50;99803.00;;;;5099435;28;20420;-80
2021/01/12 06:21:03;;;;;;;52.55;36.25;;;0.80;85.20;1.50;99823.00;;;;5101585;28;20406;-80
2021/01/12 06:23:40;;;;;;;57.28;40.45;;;0.80;85.20;1.50;99798.00;;;;5098562;28;20467;-80
2021/01/12 06:26:08;;;;;;;57.85;39.83;;;0.80;85.30;1.50;99820.00;;;;5097260;28;20514;-80
2021/01/12 06:28:36;;;;;;;60.67;41.55;;;0.80;85.40;1.50;99818.00;;;;5097220;28;20847;-80
2021/01/12 06:31:05;;;;;;;59.40;41.90;;;0.80;85.40;1.40;99833.00;;;;5105763;28;20512;-81
2021/01/12 06:33:33;;;;;;;59.07;41.10;;;0.90;85.50;1.40;99794.00;;;;5089085;28;20428;-81
2021/01/12 06:36:04;;;;;;;58.28;39.53;;;0.80;85.50;1.40;99797.00;;;;5101164;28;20407;-81
2021/01/12 06:38:37;;;;;;;55.33;40.97;;;0.80;85.50;1.50;99789.00;;;;5102226;28;20977;-80
2021/01/12 06:41:08;;;;;;;55.15;39.35;;;0.80;85.50;1.50;99804.00;;;;5107354;28;20534;-81
2021/01/12 06:43:36;;;;;;;52.20;38.63;;;0.80;85.60;1.50;99811.00;;;;5090707;28;20508;-83
2021/01/12 06:46:06;;;;;;;55.63;35.88;;;0.80;85.70;1.50;99800.00;;;;5115479;28;20414;-82
2021/01/12 06:48:42;;;;;;;54.58;40.45;;;0.80;85.70;1.50;99791.00;;;;5096841;28;20412;-82
2021/01/12 06:51:11;;;;;;;55.55;38.53;;;0.80;85.80;1.50;99801.00;;;;5104313;28;20817;-81
2021/01/12 06:53:45;;;;;;;56.72;38.30;;;0.80;85.80;52.70;157285.00;;;;5087263;28;20419;-82
2021/01/12 06:56:14;;;;;;;54.03;38.65;;;0.80;85.80;1.50;99780.00;;;;5100937;28;20421;-83
2021/01/12 06:58:47;;;;;;;58.47;40.63;;;0.80;85.80;1.50;99790.00;;;;5121061;28;20456;-81
2021/01/12 07:01:22;;;;;;;61.42;40.38;;;0.80;86.00;1.50;99765.00;;;;5126062;28;20402;-83
2021/01/12 07:03:51;;;;;;;59.38;40.03;;;0.80;86.10;1.50;99769.00;;;;5106421;28;20413;-81
2021/01/12 07:06:26;;;;;;;53.30;37.00;;;0.80;86.10;1.60;99774.00;;;;5108951;28;20443;-83
2021/01/12 07:09:10;;;;;;;57.33;38.20;;;0.80;86.10;1.50;66585.00;;;;5098380;28;20422;-84
2021/01/12 07:11:40;;;;;;;49.38;35.53;;;0.80;86.10;1.50;99774.00;;;;5104197;28;20413;-84
2021/01/12 07:14:07;;;;;;;52.22;37.17;;;0.80;86.10;1.50;99792.00;;;;5108082;28;20493;-82
2021/01/12 07:16:35;;;;;;;50.42;36.85;;;0.80;86.20;1.60;99784.00;;;;5118977;28;20409;-82
2021/01/12 07:19:03;;;;;;;50.83;36.58;;;0.80;86.20;1.60;99745.00;;;;5106931;28;20492;-84
2021/01/12 07:21:31;;;;;;;53.55;37.78;;;0.80;86.20;1.60;99766.00;;;;5107435;28;20426;-83
2021/01/12 07:24:02;;;;;;;50.50;36.55;;;0.80;86.30;1.60;99745.00;;;;5106668;28;20417;-85
2021/01/12 07:26:32;;;;;;;47.88;34.15;;;0.80;86.30;1.60;99755.00;;;;5103294;28;20421;-83
2021/01/12 07:29:11;;;;;;;45.60;35.25;;;0.80;86.30;1.60;99757.00;;;;5102962;28;20742;-87
2021/01/12 07:31:38;;;;;;;47.57;35.43;;;0.80;86.30;1.70;99755.00;;;;5121809;28;20477;-86
2021/01/12 07:34:16;;;;;;;50.33;35.80;;;0.90;86.40;217.30;157388.00;;;;5107999;28;20458;-86
2021/01/12 07:36:47;;;;;;;52.13;36.57;;;0.90;86.50;1.70;99737.00;;;;5122222;28;20435;-87
2021/01/12 07:39:15;;;;;;;44.58;34.30;;;0.90;86.50;1.70;99762.00;;;;5088951;28;20471;-86
2021/01/12 07:41:48;;;;;;;45.35;34.38;;;0.90;86.60;1.70;99750.00;;;;5095480;28;20408;-88
2021/01/12 07:44:18;;;;;;;43.65;34.08;;;0.90;86.60;1.70;99697.00;;;;5126694;28;20418;-88
2021/01/12 07:46:46;;;;;;;45.45;33.42;;;0.90;86.60;1.80;99749.00;;;;5111729;28;20421;-87
2021/01/12 07:49:14;;;;;;;42.80;33.20;;;0.90;86.60;1.80;66651.00;;;;5102474;28;20463;-86
2021/01/12 07:51:45;;;;;;;41.30;31.25;;;0.90;86.60;1.80;99736.00;;;;5111458;28;20424;-86
2021/01/12 07:54:23;;;;;;;43.25;32.58;;;1.00;86.70;217.30;157428.00;;;;5134614;28;20497;-85
2021/01/12 07:56:53;;;;;;;39.65;31.77;;;0.90;86.70;1.80;99744.00;;;;5117608;28;20451;-85
2021/01/12 07:59:22;;;;;;;40.38;29.27;;;1.00;86.80;1.90;99745.00;;;;5129235;28;20440;-84
2021/01/12 08:01:50;;;;;;;38.22;28.73;;;1.00;86.80;1.90;66675.00;;;;5097277;28;20422;-86
2021/01/12 08:04:18;;;;;;;40.97;29.70;;;1.00;86.90;2.00;99755.00;;;;5101473;28;20412;-86
2021/01/12 08:06:46;;;;;;;40.00;30.20;;;1.00;86.90;2.10;99735.00;;;;5101091;28;20444;-85
2021/01/12 08:09:22;;;;;;;38.17;28.20;;;1.00;86.90;2.00;99741.00;;;;5099635;28;20413;-85
2021/01/12 08:12:03;;;;;;;37.80;28.83;;;1.10;87.00;217.30;157547.00;;;;5107791;28;20451;-85
2021/01/12 08:14:31;;;;;;;36.25;27.65;;;1.10;87.00;2.10;99720.00;;;;5103181;28;20413;-87
2021/01/12 08:17:03;;;;;;;37.47;25.63;;;1.10;87.00;2.10;99747.00;;;;5106867;28;20803;-87
2021/01/12 08:19:31;;;;;;;31.38;25.55;;;1.10;87.00;2.20;99740.00;;;;5115113;28;20425;-87
2021/01/12 08:22:00;;;;;;;32.90;25.10;;;1.10;87.10;2.30;99716.00;;;;5099045;28;20405;-86
2021/01/12 08:24:30;;;;;;;33.15;24.10;;;1.20;87.20;2.30;99729.00;;;;5100331;28;20422;-86
2021/01/12 08:26:57;;;;;;;32.88;24.73;;;1.20;87.20;2.30;99731.00;;;;5099775;28;20487;-86
2021/01/12 08:29:26;;;;;;;29.45;23.70;;;1.20;87.30;2.30;99749.00;;;;5092162;28;20480;-86
2021/01/12 08:32:04;;;;;;;30.38;22.10;;;1.30;87.30;217.30;157660.00;;;;5097892;28;20855;-87
2021/01/12 08:34:45;;;;;;;29.60;22.67;;;1.30;87.40;217.30;157715.00;;;;5113513;28;20426;-87
2021/01/12 08:37:17;;;;;;;29.50;21.70;;;1.30;87.30;2.30;66800.00;;;;5109049;28;20422;-87
2021/01/12 08:39:47;;;;;;;27.67;21.27;;;1.40;87.40;2.40;66773.00;;;;5095894;28;20415;-85
2021/01/12 08:42:18;;;;;;;27.00;19.97;;;1.40;87.40;217.30;157699.00;;;;5105825;28;20463;-82
2021/01/12 08:44:46;;;;;;;25.30;17.77;;;1.50;87.50;217.30;157751.00;;;;5094815;28;20452;-82
2021/01/12 08:47:14;;;;;;;23.27;18.47;;;1.40;87.40;217.30;157737.00;;;;5095143;28;20412;-82
2021/01/12 08:49:41;;;;;;;20.40;17.40;;;1.50;87.50;2.60;66825.00;;;;5093772;28;20416;-82
2021/01/12 08:52:10;;;;;;;25.42;18.95;;;1.50;87.50;2.60;66832.00;;;;5092549;28;20502;-82
2021/01/12 08:54:38;;;;;;;21.50;17.10;;;1.50;87.50;217.30;157803.00;;;;5112247;28;20418;-81
2021/01/12 08:57:07;;;;;;;19.33;15.93;;;1.70;87.70;52.70;157825.00;;;;5098092;28;20436;-83
2021/01/12 08:59:34;;;;;;;21.88;15.75;;;1.60;87.60;52.70;157809.00;;;;5098573;28;20500;-82
2021/01/12 09:02:02;;;;;;;21.97;16.87;;;1.70;87.70;2.80;99722.00;;;;5107817;28;20479;-80
2021/01/12 09:04:30;;;;;;;20.45;15.80;;;1.70;87.80;2.80;99719.00;;;;5099419;28;20436;-84
2021/01/12 09:07:08;;;;;;;17.60;14.18;;;1.80;87.80;2.80;99708.00;;;;5099275;28;20410;-81
2021/01/12 09:09:36;;;;;;;17.13;12.98;;;1.90;87.90;2.80;99694.00;;;;5104266;28;20787;-82
2021/01/12 09:12:11;;;;;;;16.73;13.27;;;1.90;87.90;217.30;157870.00;;;;5098786;28;20765;-83
2021/01/12 09:14:47;;;;;;;17.30;12.98;;;2.00;88.00;2.90;66891.00;;;;5088757;28;20442;-82
2021/01/12 09:17:19;;;;;;;16.30;13.27;;;2.00;88.00;2.90;66883.00;;;;5097535;28;20445;-85
2021/01/12 09:19:52;;;;;;;15.05;12.00;;;2.00;88.00;2.90;99713.00;;;;5097421;28;20452;-80
2021/01/12 09:22:21;;;;;;;15.73;12.50;;;2.00;88.00;217.30;157880.00;;;;5088635;28;20422;-80
2021/01/12 09:24:53;;;;;;;16.35;11.90;;;2.00;88.00;2.90;99698.00;;;;5092681;28;20541;-81
2021/01/12 09:27:26;;;;;;;14.00;10.90;;;2.00;87.90;3.00;66909.00;;;;5096845;28;20426;-81
2021/01/12 09:29:54;;;;;;;13.38;10.48;;;2.10;88.00;3.00;99714.00;;;;5098978;28;20505;-81
2021/01/12 09:32:27;;;;;;;13.15;10.43;;;2.10;88.00;3.10;99727.00;;;;5100039;28;20826;-81
2021/01/12 09:34:55;;;;;;;12.80;9.20;;;2.10;87.90;3.10;99700.00;;;;5112737;28;20461;-83
2021/01/12 09:37:23;;;;;;;13.93;10.23;;;2.20;87.90;3.00;99701.00;;;;5115416;28;20433;-82
2021/01/12 09:39:56;;;;;;;11.20;9.00;;;2.30;87.90;3.00;99700.00;;;;5114043;28;20432;-81
2021/01/12 09:42:26;;;;;;;10.07;8.50;;;2.20;87.70;3.10;99701.00;;;;5105117;28;20443;-81
2021/01/12 09:45:10;;;;;;;8.90;7.60;;;2.40;87.80;3.20;99710.00;;;;5106367;28;20511;-81
2021/01/12 09:47:37;;;;;;;9.80;7.90;;;2.30;87.60;3.30;99701.00;;;;5102806;28;20915;-82
2021/01/12 09:50:06;;;;;;;10.20;7.10;;;2.30;87.50;3.30;66982.00;;;;5105557;28;20418;-82
2021/01/12 09:52:36;;;;;;;8.65;7.20;;;2.30;87.40;3.30;99684.00;;;;5085717;28;20431;-81
2021/01/12 09:55:05;;;;;;;10.93;6.70;;;2.40;87.30;3.40;99689.00;;;;5105986;28;20428;-83
2021/01/12 09:57:36;;;;;;;7.30;5.90;;;2.40;87.40;3.40;99674.00;;;;5097647;28;20455;-82
2021/01/12 10:00:08;;;;;;;7.30;6.03;;;2.50;87.90;3.60;99677.00;;;;5098462;28;20423;-81
2021/01/12 10:02:44;;;;;;;6.90;5.90;;;2.60;87.20;3.60;99670.00;;;;5088940;28;20495;-82
2021/01/12 10:05:12;;;;;;;6.07;4.90;;;2.80;87.70;3.60;99684.00;;;;5098903;28;20440;-83
2021/01/12 10:07:40;;;;;;;6.00;4.97;;;2.60;86.70;3.60;99684.00;;;;5097769;28;20843;-82
2021/01/12 10:10:08;;;;;;;4.95;4.40;;;2.60;86.40;3.60;99672.00;;;;5103876;28;20417;-81
2021/01/12 10:12:37;;;;;;;6.85;4.68;;;2.70;86.40;3.70;99676.00;;;;5116753;28;20418;-81
2021/01/12 10:15:06;;;;;;;6.50;5.05;;;2.70;86.30;3.70;99659.00;;;;5119388;28;20496;-81
2021/01/12 10:17:33;;;;;;;7.40;4.65;;;2.70;86.40;3.70;99670.00;;;;5123067;28;20410;-81
2021/01/12 10:20:03;;;;;;;5.20;4.10;;;2.70;86.20;3.70;99661.00;;;;5102006;28;20421;-81
2021/01/12 10:22:31;;;;;;;5.78;4.10;;;2.80;86.10;3.70;99656.00;;;;5109800;28;20421;-81
2021/01/12 10:24:59;;;;;;;4.53;3.75;;;2.80;85.80;3.70;99658.00;;;;5118665;28;20414;-81
2021/01/12 10:27:33;;;;;;;4.30;3.80;;;2.80;85.80;3.70;99647.00;;;;5145214;27;20401;-81
2021/01/12 10:30:03;;;;;;;5.00;3.78;;;2.80;85.60;3.80;99652.00;;;;5114759;28;20541;-81
2021/01/12 10:32:32;;;;;;;5.55;4.10;;;2.80;86.00;217.30;158282.00;;;;5127458;28;20433;-81
2021/01/12 10:35:00;;;;;;;4.40;3.60;;;2.80;85.90;3.80;99653.00;;;;5100233;28;20451;-81
2021/01/12 10:37:28;;;;;;;4.53;3.60;;;2.80;85.80;3.80;99650.00;;;;5099768;28;20444;-82
2021/01/12 10:39:57;;;;;;;3.83;3.40;;;2.90;85.80;3.80;99639.00;;;;5094740;28;20424;-81
2021/01/12 10:42:28;;;;;;;4.15;3.50;;;2.90;85.60;3.80;99652.00;;;;5082298;28;20454;-80
2021/01/12 10:44:55;;;;;;;4.10;3.70;;;2.80;85.60;3.70;99635.00;;;;5105137;28;20417;-80
2021/01/12 10:47:43;;;;;;;4.20;3.80;;;2.80;85.80;3.90;99650.00;;;;5111044;28;20444;-81
2021/01/12 10:50:15;;;;;;;4.28;3.35;;;2.90;86.20;4.00;99646.00;;;;5095195;28;20435;-81
2021/01/12 10:52:43;;;;;;;4.50;3.50;;;3.00;86.00;4.10;99644.00;;;;5106334;28;21050;-82
2021/01/12 10:55:11;;;;;;;3.13;2.83;;;3.10;85.80;4.20;99637.00;;;;5102078;28;20461;-81
2021/01/12 10:57:38;;;;;;;3.80;3.20;;;3.10;85.20;4.20;99619.00;;;;5093406;28;20410;-79
2021/01/12 11:00:09;;;;;;;4.85;3.17;;;3.20;85.10;4.20;99624.00;;;;5103659;28;20415;-80
2021/01/12 11:02:38;;;;;;;2.95;2.65;;;3.20;85.10;4.30;99615.00;;;;5103137;28;20476;-80
2021/01/12 11:05:08;;;;;;;4.30;2.90;;;3.30;84.90;4.40;99618.00;;;;5108024;28;20421;-81
2021/01/12 11:07:36;;;;;;;3.20;2.90;;;3.40;84.70;4.50;99606.00;;;;5124120;28;20425;-80